Time;durP1;ratioP1;P1;durP2;ratioP2;P2;SDS_P1;SDS_P2;PMS_P1;PMS_P2;Temp;Humidity;BMP_temperature;BMP_pressure;BME280_temperature;BME280_humidity;BME280_pressure;Samples;Min_cycle;Max_cycle;Signal;HPM_P1;HPM_P2
2021/04/30 00:02:23;;;;;;;15.73;13.82;;;9.20;73.80;;;;;;5013597;28;20789;-58
2021/04/30 00:04:48;;;;;;;16.85;13.45;;;9.30;73.90;;;;;;5044057;28;20030;-59
2021/04/30 00:07:14;;;;;;;15.60;13.38;;;9.30;73.90;;;;;;5014924;28;20703;-60
2021/04/30 00:09:40;;;;;;;16.08;13.77;;;9.20;74.20;;;;;;5017153;28;20029;-60
2021/04/30 00:12:06;;;;;;;15.77;14.13;;;9.10;74.40;;;;;;5014227;28;20030;-60
2021/04/30 00:14:31;;;;;;;14.95;13.32;;;9.10;74.30;;;;;;5017952;28;20048;-61
2021/04/30 00:16:58;;;;;;;16.67;14.27;;;9.00;74.60;;;;;;5013817;28;20101;-60
2021/04/30 00:19:25;;;;;;;15.93;14.18;;;9.10;74.80;;;;;;5015319;28;20056;-60
2021/04/30 00:21:50;;;;;;;17.83;14.68;;;8.90;75.20;;;;;;5013600;28;20033;-60
2021/04/30 00:24:16;;;;;;;14.32;12.70;;;8.60;76.30;;;;;;5013613;28;20103;-59
2021/04/30 00:26:42;;;;;;;14.50;13.00;;;8.60;76.50;;;;;;5013239;28;20494;-60
2021/04/30 00:29:07;;;;;;;16.67;13.27;;;8.70;76.00;;;;;;5030100;28;20029;-59
2021/04/30 00:31:33;;;;;;;16.90;14.02;;;8.70;76.10;;;;;;5016531;28;20152;-61
2021/04/30 00:33:59;;;;;;;16.60;14.38;;;8.80;76.10;;;;;;5023381;28;20088;-60
2021/04/30 00:36:26;;;;;;;15.55;12.88;;;8.90;75.90;;;;;;5044653;28;20128;-59
2021/04/30 00:38:51;;;;;;;15.80;14.07;;;9.00;75.30;;;;;;5012865;28;20030;-62
2021/04/30 00:41:17;;;;;;;16.23;13.13;;;9.00;75.10;;;;;;5014743;28;20045;-63
2021/04/30 00:43:43;;;;;;;15.15;13.18;;;9.00;74.90;;;;;;5017783;28;20428;-61
2021/04/30 00:46:08;;;;;;;14.20;12.73;;;9.10;74.80;;;;;;5021562;28;20044;-59
2021/04/30 00:48:34;;;;;;;15.15;13.65;;;9.20;74.50;;;;;;5026365;28;20215;-59
2021/04/30 00:51:00;;;;;;;13.55;12.15;;;9.20;74.80;;;;;;5044070;28;20037;-61
2021/04/30 00:53:25;;;;;;;15.07;12.75;;;9.30;73.90;;;;;;5018666;28;20041;-60
2021/04/30 00:55:51;;;;;;;14.65;13.15;;;9.50;73.40;;;;;;5012538;28;20493;-61
2021/04/30 00:58:17;;;;;;;14.15;12.60;;;9.50;73.20;;;;;;5045750;28;20040;-61
2021/04/30 01:00:43;;;;;;;14.20;12.60;;;9.40;73.40;;;;;;5016601;28;20069;-59
2021/04/30 01:03:10;;;;;;;14.30;12.80;;;9.50;73.30;;;;;;5012369;28;20026;-61
2021/04/30 01:05:38;;;;;;;14.60;12.82;;;9.40;73.50;;;;;;5012547;28;20053;-60
2021/04/30 01:08:05;;;;;;;14.63;12.65;;;9.20;74.00;;;;;;5012216;28;20038;-59
2021/04/30 01:10:32;;;;;;;14.35;12.85;;;9.00;75.10;;;;;;5012199;28;20429;-60
2021/04/30 01:12:57;;;;;;;14.52;13.00;;;9.00;75.40;;;;;;5013023;28;20037;-60
2021/04/30 01:15:24;;;;;;;14.27;12.77;;;9.10;75.10;;;;;;5013417;28;20418;-61
2021/04/30 01:17:50;;;;;;;16.40;13.55;;;9.20;75.00;;;;;;5042283;28;20072;-60
2021/04/30 01:20:18;;;;;;;13.65;12.15;;;9.20;74.60;;;;;;5019426;28;20081;-61
2021/04/30 01:22:52;;;;;;;17.30;14.45;;;9.30;74.40;;;;;;5025735;28;20037;-60
2021/04/30 01:25:23;;;;;;;17.00;13.48;;;9.30;74.40;;;;;;5014980;28;20494;-59
2021/04/30 01:27:50;;;;;;;15.00;13.20;;;9.30;74.50;;;;;;5018889;28;20029;-60
2021/04/30 01:30:22;;;;;;;14.20;12.68;;;9.50;74.20;;;;;;5024872;28;20045;-59
2021/04/30 01:32:47;;;;;;;17.02;14.35;;;9.50;73.70;;;;;;5022095;28;20069;-60
2021/04/30 01:35:19;;;;;;;17.73;13.88;;;9.50;73.90;;;;;;5016872;28;20103;-62
2021/04/30 01:37:49;;;;;;;17.85;14.48;;;9.50;73.50;;;;;;5018360;28;20116;-61
2021/04/30 01:40:18;;;;;;;25.08;19.13;;;9.60;73.40;;;;;;5028030;28;20041;-61
2021/04/30 01:43:06;;;;;;;19.50;15.85;;;9.70;73.30;;;;;;5006034;28;20106;-62
2021/04/30 01:45:40;;;;;;;15.52;13.30;;;9.80;72.90;;;;;;5016576;28;20017;-60
2021/04/30 01:48:08;;;;;;;;;;;9.90;72.60;;;;;;5020029;28;20033;-62
2021/04/30 01:50:34;;;;;;;14.73;13.23;;;9.90;72.00;;;;;;5026816;28;19914;-61
2021/04/30 01:53:00;;;;;;;15.35;13.38;;;9.80;72.20;;;;;;5012580;28;20030;-60
2021/04/30 01:55:30;;;;;;;16.67;13.55;;;9.80;72.40;;;;;;5014613;28;20497;-61
2021/04/30 01:57:57;;;;;;;17.48;13.60;;;9.70;72.70;;;;;;5022894;28;20042;-61
2021/04/30 02:00:24;;;;;;;15.85;14.13;;;9.60;72.80;;;;;;5027895;28;20038;-61
2021/04/30 02:02:52;;;;;;;15.63;13.95;;;9.70;72.70;;;;;;5019865;28;20104;-60
2021/04/30 02:05:19;;;;;;;15.75;13.55;;;9.70;72.70;;;;;;5020782;28;20057;-61
2021/04/30 02:07:45;;;;;;;15.73;13.93;;;9.60;73.30;;;;;;5013665;28;20034;-60
2021/04/30 02:10:15;;;;;;;16.75;14.95;;;9.20;74.40;;;;;;5019860;28;20048;-60
2021/04/30 02:12:41;;;;;;;16.45;14.75;;;9.00;75.80;;;;;;5027684;28;20041;-62
2021/04/30 02:15:09;;;;;;;15.70;14.02;;;8.90;76.10;;;;;;5012463;28;20030;-61
2021/04/30 02:17:36;;;;;;;17.35;15.13;;;8.70;77.00;;;;;;5013132;28;20041;-60
2021/04/30 02:20:03;;;;;;;17.23;14.55;;;8.70;77.30;;;;;;5011090;28;20033;-61
2021/04/30 02:22:28;;;;;;;16.40;14.63;;;8.60;77.50;;;;;;5045808;28;20029;-60
2021/04/30 02:24:54;;;;;;;17.88;15.95;;;8.70;77.40;;;;;;5030694;28;20073;-60
2021/04/30 02:27:20;;;;;;;17.17;15.10;;;8.70;77.10;;;;;;5023971;28;20374;-60
2021/04/30 02:29:45;;;;;;;16.52;14.15;;;8.60;77.60;;;;;;5020726;28;20038;-59
2021/04/30 02:32:11;;;;;;;22.23;15.73;;;8.60;78.00;;;;;;5017026;28;20083;-60
2021/04/30 02:34:36;;;;;;;16.67;14.38;;;8.60;77.80;;;;;;5018140;28;20068;-61
2021/04/30 02:37:02;;;;;;;18.02;15.38;;;8.60;78.00;;;;;;5042763;28;20117;-61
2021/04/30 02:39:28;;;;;;;22.73;15.85;;;8.50;78.10;;;;;;5011549;28;20042;-60
2021/04/30 02:41:53;;;;;;;17.92;16.05;;;8.50;78.30;;;;;;5012088;28;20121;-62
2021/04/30 02:44:19;;;;;;;19.15;16.77;;;8.50;78.20;;;;;;5012555;28;20030;-58
2021/04/30 02:46:44;;;;;;;18.30;15.18;;;8.60;78.10;;;;;;5017843;28;20030;-61
2021/04/30 02:49:14;;;;;;;20.27;15.55;;;8.50;78.30;;;;;;5024223;28;20029;-62
2021/04/30 02:51:40;;;;;;;21.08;17.40;;;8.50;78.00;;;;;;5048143;28;20069;-60
2021/04/30 02:54:06;;;;;;;19.48;16.48;;;8.60;77.80;;;;;;5023341;28;20084;-61
2021/04/30 02:56:34;;;;;;;20.50;17.42;;;8.60;77.80;;;;;;5023382;28;20493;-61
2021/04/30 02:59:03;;;;;;;20.23;17.75;;;8.60;77.80;;;;;;5029307;28;20116;-59
2021/04/30 03:01:29;;;;;;;21.02;17.35;;;8.50;77.70;;;;;;5015402;28;20029;-60
2021/04/30 03:03:54;;;;;;;21.02;18.05;;;8.50;77.80;;;;;;5022786;28;20033;-59
2021/04/30 03:06:20;;;;;;;23.00;18.60;;;8.50;77.90;;;;;;5016194;28;20045;-60
2021/04/30 03:08:51;;;;;;;25.45;19.17;;;8.40;78.00;;;;;;5033395;28;20041;-60
2021/04/30 03:11:16;;;;;;;22.70;20.30;;;8.50;78.20;;;;;;5016373;28;20041;-61
2021/04/30 03:13:42;;;;;;;26.08;19.30;;;8.60;78.10;;;;;;5015907;28;20125;-61
2021/04/30 03:16:07;;;;;;;22.02;19.65;;;8.50;78.20;;;;;;5015703;28;20113;-58
2021/04/30 03:18:33;;;;;;;22.92;19.65;;;8.50;78.40;;;;;;5047221;28;20045;-59
2021/04/30 03:20:58;;;;;;;24.17;19.90;;;8.60;78.20;;;;;;5027726;28;20612;-61
2021/04/30 03:23:24;;;;;;;23.42;20.38;;;8.50;78.50;;;;;;5015005;28;20072;-61
2021/04/30 03:25:49;;;;;;;23.92;20.02;;;8.50;78.70;;;;;;5016894;28;20080;-57
2021/04/30 03:28:15;;;;;;;27.30;20.85;;;8.40;78.50;;;;;;5029880;28;20028;-60
2021/04/30 03:30:41;;;;;;;29.50;22.10;;;8.50;78.30;;;;;;5025643;28;20103;-63
2021/04/30 03:33:07;;;;;;;24.20;21.15;;;8.50;78.40;;;;;;5026554;28;20056;-61
2021/04/30 03:35:32;;;;;;;26.50;21.30;;;8.50;78.60;;;;;;5015492;28;20099;-59
2021/04/30 03:38:00;;;;;;;26.10;21.67;;;8.50;78.10;;;;;;5014629;28;20045;-60
2021/04/30 03:40:26;;;;;;;25.33;21.63;;;8.60;78.30;;;;;;5018562;28;20512;-59
2021/04/30 03:42:51;;;;;;;24.92;22.30;;;8.60;78.20;;;;;;5031284;28;20064;-58
2021/04/30 03:45:17;;;;;;;24.67;22.05;;;8.60;78.70;;;;;;5021547;28;20029;-59
2021/04/30 03:47:42;;;;;;;23.05;20.52;;;8.60;78.70;;;;;;5053525;28;20041;-60
2021/04/30 03:50:09;;;;;;;25.75;22.55;;;8.50;79.20;;;;;;5043178;28;20408;-60
2021/04/30 03:52:34;;;;;;;28.67;23.27;;;8.50;79.30;;;;;;5025467;28;20457;-61
2021/04/30 03:55:00;;;;;;;26.85;23.23;;;8.40;79.80;;;;;;5034305;28;20059;-59
2021/04/30 03:57:26;;;;;;;26.58;22.00;;;8.40;79.40;;;;;;5030936;28;20049;-61
2021/04/30 03:59:52;;;;;;;24.33;21.55;;;8.50;79.40;;;;;;5026388;28;20042;-60
2021/04/30 04:02:17;;;;;;;30.90;23.50;;;8.60;79.40;;;;;;5029288;28;20090;-62
2021/04/30 04:04:43;;;;;;;26.60;22.35;;;8.60;79.30;;;;;;5014291;28;20065;-60
2021/04/30 04:07:08;;;;;;;26.15;22.60;;;8.60;79.20;;;;;;5057976;28;20037;-59
2021/04/30 04:09:34;;;;;;;27.90;24.08;;;8.60;79.20;;;;;;5018188;28;20034;-61
2021/04/30 04:11:59;;;;;;;30.65;23.67;;;8.60;79.60;;;;;;5028628;28;20068;-60
2021/04/30 04:14:25;;;;;;;27.67;23.48;;;8.50;80.20;;;;;;5015876;28;20034;-61
2021/04/30 04:16:50;;;;;;;28.98;22.48;;;8.40;80.40;;;;;;5027710;28;20030;-61
2021/04/30 04:19:17;;;;;;;28.88;24.08;;;8.50;79.80;;;;;;5025550;28;20732;-61
2021/04/30 04:21:44;;;;;;;27.65;24.65;;;8.60;80.00;;;;;;5013135;28;20116;-62
2021/04/30 04:24:09;;;;;;;30.60;23.88;;;8.40;80.60;;;;;;5030144;28;20026;-60
2021/04/30 04:26:35;;;;;;;26.70;23.83;;;8.40;80.80;;;;;;5029143;28;20033;-63
2021/04/30 04:29:01;;;;;;;27.75;23.52;;;8.50;80.50;;;;;;5051011;28;20033;-59
2021/04/30 04:31:27;;;;;;;29.05;24.40;;;8.40;80.70;;;;;;5016787;28;20070;-60
2021/04/30 04:33:52;;;;;;;29.45;23.52;;;8.40;80.80;;;;;;5032986;28;20058;-59
2021/04/30 04:36:18;;;;;;;25.48;22.73;;;8.50;80.40;;;;;;5045740;28;20102;-61
2021/04/30 04:38:43;;;;;;;27.58;24.13;;;8.60;80.00;;;;;;5031810;28;20037;-60
2021/04/30 04:41:09;;;;;;;29.45;23.60;;;8.60;80.20;;;;;;5013354;28;20029;-60
2021/04/30 04:43:34;;;;;;;28.40;25.30;;;8.60;80.10;;;;;;5034429;28;20531;-59
2021/04/30 04:46:00;;;;;;;29.75;24.55;;;8.60;79.70;;;;;;5022654;28;20062;-59
2021/04/30 04:48:26;;;;;;;30.20;25.65;;;8.50;79.90;;;;;;5032500;28;20044;-59
2021/04/30 04:50:52;;;;;;;29.98;24.10;;;8.50;80.10;;;;;;5024955;28;20080;-59
2021/04/30 04:53:17;;;;;;;27.88;24.17;;;8.50;80.20;;;;;;5018716;28;20124;-62
2021/04/30 04:55:43;;;;;;;27.33;24.33;;;8.60;79.90;;;;;;5049102;28;20079;-63
2021/04/30 04:58:08;;;;;;;28.15;25.10;;;8.60;80.30;;;;;;5038558;28;20128;-61
2021/04/30 05:00:34;;;;;;;27.13;24.23;;;8.50;80.90;;;;;;5036950;28;20044;-60
2021/04/30 05:02:59;;;;;;;27.08;23.95;;;8.60;80.90;;;;;;5013874;28;20030;-58
2021/04/30 05:05:27;;;;;;;29.23;24.25;;;8.60;80.70;;;;;;5020044;28;20187;-61
2021/04/30 05:07:53;;;;;;;29.13;23.92;;;8.70;80.60;;;;;;5019637;28;20029;-58
2021/04/30 05:10:19;;;;;;;27.02;24.17;;;8.60;81.00;;;;;;5042700;28;20393;-60
2021/04/30 05:12:46;;;;;;;28.85;25.75;;;8.60;81.50;;;;;;5036477;28;20037;-60
2021/04/30 05:15:14;;;;;;;28.15;24.52;;;8.80;80.80;;;;;;5035555;28;20038;-59
2021/04/30 05:17:40;;;;;;;28.30;25.27;;;8.80;81.00;;;;;;5045106;28;20038;-62
2021/04/30 05:20:06;;;;;;;27.55;24.25;;;8.80;81.10;;;;;;5027290;28;20045;-59
2021/04/30 05:22:33;;;;;;;28.27;25.23;;;8.70;81.40;;;;;;5037787;28;20056;-61
2021/04/30 05:25:00;;;;;;;31.83;25.88;;;8.50;82.30;;;;;;5021607;28;20367;-62
2021/04/30 05:27:26;;;;;;;30.10;25.73;;;8.50;82.70;;;;;;5016048;28;20037;-62
2021/04/30 05:29:51;;;;;;;30.88;25.15;;;8.60;82.60;;;;;;5029039;28;20057;-61
2021/04/30 05:32:18;;;;;;;29.63;25.10;;;8.70;82.20;;;;;;5018522;28;20120;-61
2021/04/30 05:34:44;;;;;;;28.95;25.13;;;8.70;82.70;;;;;;5027751;28;20037;-62
2021/04/30 05:37:10;;;;;;;31.35;25.25;;;8.70;82.90;;;;;;5024910;28;20061;-63
2021/04/30 05:39:36;;;;;;;32.00;27.35;;;8.60;83.50;;;;;;5024440;28;20440;-62
2021/04/30 05:42:05;;;;;;;32.15;25.52;;;8.70;83.40;;;;;;5013054;28;20026;-63
2021/04/30 05:44:30;;;;;;;38.10;27.50;;;8.80;82.80;;;;;;5023883;28;20037;-61
2021/04/30 05:46:56;;;;;;;27.85;24.92;;;8.80;82.30;;;;;;5031846;28;20042;-62
2021/04/30 05:49:22;;;;;;;32.47;25.20;;;8.80;82.70;;;;;;5020888;28;20527;-60
2021/04/30 05:51:47;;;;;;;28.42;24.65;;;8.80;82.90;;;;;;5013500;28;20042;-60
2021/04/30 05:54:13;;;;;;;30.73;25.35;;;8.70;83.10;;;;;;5019461;28;20067;-61
2021/04/30 05:56:39;;;;;;;32.05;26.33;;;8.80;83.30;;;;;;5018797;28;20355;-60
2021/04/30 05:59:04;;;;;;;28.50;24.80;;;8.80;83.30;;;;;;5030364;28;20037;-62
2021/04/30 06:01:30;;;;;;;29.42;24.52;;;8.80;83.80;;;;;;5052316;28;20787;-62
2021/04/30 06:03:55;;;;;;;27.65;24.60;;;8.80;83.60;;;;;;5018912;28;20029;-61
2021/04/30 06:06:21;;;;;;;26.90;23.88;;;9.00;83.20;;;;;;5032342;28;20065;-61
2021/04/30 06:08:47;;;;;;;27.52;24.48;;;9.00;83.20;;;;;;5043975;28;20484;-61
2021/04/30 06:11:12;;;;;;;27.45;24.40;;;8.90;83.60;;;;;;5031592;28;20699;-59
2021/04/30 06:13:38;;;;;;;28.15;24.88;;;9.10;83.20;;;;;;5043058;28;20041;-61
2021/04/30 06:16:05;;;;;;;26.98;23.63;;;9.00;84.30;;;;;;5021297;28;20034;-60
2021/04/30 06:18:30;;;;;;;27.55;24.23;;;9.20;83.40;;;;;;5024958;28;20075;-59
2021/04/30 06:20:56;;;;;;;28.98;23.55;;;9.20;83.60;;;;;;5031849;28;20037;-61
2021/04/30 06:23:21;;;;;;;29.27;23.70;;;9.10;84.50;;;;;;5037877;28;20064;-64
2021/04/30 06:25:47;;;;;;;25.85;22.58;;;9.30;86.70;;;;;;5029519;28;20091;-64
2021/04/30 06:28:12;;;;;;;25.42;22.83;;;9.40;84.30;;;;;;5025014;28;20510;-64
2021/04/30 06:30:38;;;;;;;27.92;22.50;;;9.40;85.20;;;;;;5023671;28;20068;-65
2021/04/30 06:33:08;;;;;;;26.67;21.60;;;9.50;83.40;;;;;;5020334;28;20133;-66
2021/04/30 06:35:34;;;;;;;26.75;21.13;;;9.40;84.00;;;;;;5016187;28;20034;-65
2021/04/30 06:38:00;;;;;;;25.33;21.25;;;9.30;84.40;;;;;;5021747;28;20088;-65
2021/04/30 06:40:26;;;;;;;25.67;20.98;;;9.20;85.10;;;;;;5019365;28;20037;-65
2021/04/30 06:42:51;;;;;;;23.40;20.70;;;9.20;86.00;;;;;;5016443;28;20471;-64
2021/04/30 06:45:17;;;;;;;24.98;19.73;;;9.20;85.70;;;;;;5013803;28;20034;-67
2021/04/30 06:47:43;;;;;;;25.17;20.90;;;9.20;86.00;;;;;;5020561;28;20639;-66
2021/04/30 06:50:09;;;;;;;22.90;19.75;;;9.10;86.00;;;;;;5011655;28;20390;-66
2021/04/30 06:52:34;;;;;;;23.25;19.40;;;9.20;85.90;;;;;;5029351;28;20042;-65
2021/04/30 06:55:00;;;;;;;24.23;20.75;;;9.10;86.20;;;;;;5028134;28;20382;-65
2021/04/30 06:57:27;;;;;;;24.88;21.25;;;9.30;85.90;;;;;;5030412;28;20030;-65
2021/04/30 06:59:52;;;;;;;24.48;20.00;;;9.30;85.80;;;;;;5018140;28;20506;-64
2021/04/30 07:02:18;;;;;;;25.27;21.83;;;9.10;86.70;;;;;;5030544;28;20099;-65
2021/04/30 07:04:43;;;;;;;26.80;20.90;;;9.00;87.30;;;;;;5018933;28;20396;-66
2021/04/30 07:07:09;;;;;;;27.17;20.80;;;9.00;87.10;;;;;;5014243;28;20030;-65
2021/04/30 07:09:35;;;;;;;24.10;21.02;;;9.20;86.80;;;;;;5010685;28;20091;-66
2021/04/30 07:12:00;;;;;;;26.85;21.73;;;9.20;87.00;;;;;;5010300;28;20064;-65
2021/04/30 07:14:26;;;;;;;26.27;20.95;;;9.30;87.10;;;;;;5010964;28;20542;-65
2021/04/30 07:16:52;;;;;;;27.00;22.80;;;9.40;86.70;;;;;;5017910;28;20442;-67
2021/04/30 07:19:18;;;;;;;26.08;22.42;;;9.30;86.60;;;;;;5014366;28;20555;-67
2021/04/30 07:21:44;;;;;;;26.33;22.23;;;9.20;86.90;;;;;;5029765;28;20103;-66
2021/04/30 07:24:10;;;;;;;27.83;22.02;;;9.20;87.10;;;;;;5024348;28;20033;-66
2021/04/30 07:26:35;;;;;;;25.58;22.83;;;9.20;87.30;;;;;;5036628;28;20401;-64
2021/04/30 07:29:01;;;;;;;26.38;21.10;;;9.30;87.10;;;;;;5031663;28;20034;-65
2021/04/30 07:31:26;;;;;;;24.42;20.95;;;9.10;87.50;;;;;;5033554;28;20536;-64
2021/04/30 07:33:52;;;;;;;23.90;20.88;;;9.30;86.90;;;;;;5031797;28;20111;-63
2021/04/30 07:36:18;;;;;;;26.02;21.08;;;9.20;87.40;;;;;;5035721;28;20069;-64
2021/04/30 07:38:44;;;;;;;24.83;22.02;;;9.20;86.90;;;;;;5024708;28;20128;-65
2021/04/30 07:41:11;;;;;;;25.70;21.25;;;9.20;87.50;;;;;;5033869;28;20037;-65
2021/04/30 07:43:37;;;;;;;24.95;21.10;;;9.40;86.90;;;;;;5033107;28;20021;-64
2021/04/30 07:46:03;;;;;;;41.90;22.15;;;9.50;87.10;;;;;;5037667;28;20026;-62
2021/04/30 07:48:29;;;;;;;36.83;21.70;;;9.60;86.50;;;;;;5035842;28;20053;-64
2021/04/30 07:50:57;;;;;;;32.50;21.67;;;9.60;86.40;;;;;;5041471;28;20079;-63
2021/04/30 07:53:23;;;;;;;25.45;20.80;;;9.40;86.90;;;;;;5028436;28;20034;-63
2021/04/30 07:55:48;;;;;;;25.73;20.58;;;9.30;87.80;;;;;;5035752;28;20039;-63
2021/04/30 07:58:14;;;;;;;22.85;19.65;;;9.40;86.90;;;;;;5030340;28;20509;-63
2021/04/30 08:00:40;;;;;;;23.17;20.25;;;9.60;86.50;;;;;;5026171;28;20037;-64
2021/04/30 08:03:05;;;;;;;22.65;19.73;;;9.60;86.40;;;;;;5048044;28;20030;-64
2021/04/30 08:05:31;;;;;;;23.58;19.80;;;9.60;86.30;;;;;;5052721;28;20038;-62
2021/04/30 08:08:00;;;;;;;24.17;21.30;;;9.50;87.30;;;;;;5015667;28;20018;-64
2021/04/30 08:10:26;;;;;;;24.20;20.70;;;9.30;88.90;;;;;;5038417;28;20048;-64
2021/04/30 08:12:51;;;;;;;25.27;21.92;;;9.40;88.40;;;;;;5020793;28;20065;-64
2021/04/30 08:15:17;;;;;;;24.85;20.85;;;9.50;89.10;;;;;;5055307;28;20102;-62
2021/04/30 08:17:43;;;;;;;22.52;20.13;;;9.60;87.30;;;;;;5026307;28;20037;-63
2021/04/30 08:20:09;;;;;;;24.00;20.33;;;9.70;87.20;;;;;;5050099;28;20033;-64
2021/04/30 08:22:35;;;;;;;23.55;20.00;;;9.70;87.10;;;;;;5052097;28;20582;-65
2021/04/30 08:25:01;;;;;;;22.95;19.88;;;9.80;86.40;;;;;;5033245;28;20029;-64
2021/04/30 08:27:27;;;;;;;26.15;19.90;;;10.10;85.80;;;;;;5055395;28;20040;-62
2021/04/30 08:29:52;;;;;;;23.80;20.20;;;10.30;85.00;;;;;;5035542;28;20108;-64
2021/04/30 08:32:18;;;;;;;21.25;19.02;;;10.20;85.30;;;;;;5028174;28;20022;-63
2021/04/30 08:34:44;;;;;;;19.98;17.65;;;10.30;84.90;;;;;;5026473;28;20045;-62
2021/04/30 08:37:11;;;;;;;23.30;17.65;;;10.20;84.50;;;;;;5028809;28;20174;-64
2021/04/30 08:39:36;;;;;;;24.10;20.23;;;10.20;85.30;;;;;;5029299;28;20361;-64
2021/04/30 08:42:02;;;;;;;22.38;19.92;;;10.10;85.40;;;;;;5016166;28;20029;-61
2021/04/30 08:44:28;;;;;;;22.75;19.73;;;10.20;85.50;;;;;;5031211;28;20041;-63
2021/04/30 08:46:53;;;;;;;23.88;20.77;;;10.40;85.50;;;;;;5015089;28;20038;-62
2021/04/30 08:49:19;;;;;;;24.55;21.90;;;10.00;87.60;;;;;;5027983;28;20041;-63
2021/04/30 08:51:45;;;;;;;23.90;20.77;;;9.60;90.00;;;;;;5036393;28;20030;-62
2021/04/30 08:54:10;;;;;;;24.73;21.30;;;9.60;90.00;;;;;;5034994;28;20022;-62
2021/04/30 08:56:44;;;;;;;28.55;23.77;;;9.60;90.30;;;;;;5034811;28;20045;-64
2021/04/30 08:59:11;;;;;;;27.33;23.00;;;9.50;90.60;;;;;;5037398;28;20034;-64
2021/04/30 09:01:37;;;;;;;27.27;23.10;;;9.60;90.60;;;;;;5037950;28;20497;-63
2021/04/30 09:04:05;;;;;;;23.58;19.67;;;9.60;90.60;;;;;;5041561;28;20076;-64
2021/04/30 09:06:36;;;;;;;25.88;21.88;;;9.80;90.30;;;;;;5054635;28;20032;-62
2021/04/30 09:09:17;;;;;;;24.27;21.52;;;9.80;90.50;;;;;;5049103;28;20419;-64
2021/04/30 09:11:54;;;;;;;24.48;21.10;;;9.60;90.90;;;;;;5035318;28;20067;-64
2021/04/30 09:14:33;;;;;;;24.08;20.35;;;9.90;90.60;;;;;;5043931;28;20037;-63
2021/04/30 09:17:09;;;;;;;22.98;20.08;;;10.00;90.70;;;;;;5057359;28;20029;-63
2021/04/30 09:19:37;;;;;;;21.98;17.17;;;10.10;90.10;;;;;;5046641;28;20052;-64
2021/04/30 09:22:07;;;;;;;20.75;16.52;;;10.20;90.10;;;;;;5029666;28;20068;-63
2021/04/30 09:24:34;;;;;;;19.67;15.13;;;10.20;89.50;;;;;;5036498;28;20037;-65
2021/04/30 09:27:00;;;;;;;16.70;14.90;;;10.30;88.60;;;;;;5033916;28;20037;-64
2021/04/30 09:29:29;;;;;;;18.55;15.23;;;10.10;89.60;;;;;;5053463;28;20130;-64
2021/04/30 09:31:55;;;;;;;16.63;13.23;;;10.10;90.00;;;;;;5032671;28;20120;-62
2021/04/30 09:34:28;;;;;;;15.40;13.27;;;10.20;89.40;;;;;;5047029;28;20613;-63
2021/04/30 09:37:14;;;;;;;12.48;10.57;;;10.30;89.20;;;;;;5056260;28;20033;-62
2021/04/30 09:40:01;;;;;;;13.52;10.77;;;10.50;87.20;;;;;;5039837;28;20037;-62
2021/04/30 09:42:36;;;;;;;12.15;10.02;;;10.50;88.00;;;;;;5035544;28;20167;-60
2021/04/30 09:45:06;;;;;;;12.60;9.73;;;10.60;86.50;;;;;;5028328;28;20062;-62
2021/04/30 09:47:34;;;;;;;10.70;9.38;;;10.90;86.50;;;;;;5048987;28;20083;-65
2021/04/30 09:50:04;;;;;;;12.88;10.60;;;10.90;85.90;;;;;;5035622;28;20397;-63
2021/04/30 09:52:30;;;;;;;12.38;9.85;;;10.90;85.80;;;;;;5029584;28;20112;-63
2021/04/30 09:55:01;;;;;;;13.18;10.35;;;10.70;86.30;;;;;;5045795;28;20091;-62
2021/04/30 09:57:28;;;;;;;12.95;10.32;;;10.80;85.90;;;;;;5040401;28;20044;-63
2021/04/30 09:59:59;;;;;;;10.48;9.38;;;10.80;85.90;;;;;;5031001;28;20516;-63
2021/04/30 10:02:29;;;;;;;13.88;11.23;;;11.10;84.60;;;;;;5040593;28;20041;-61
2021/04/30 10:04:57;;;;;;;11.88;10.55;;;10.70;85.90;;;;;;5040677;28;20041;-63
2021/04/30 10:07:30;;;;;;;12.98;11.20;;;10.70;85.40;;;;;;5035215;28;20465;-64
2021/04/30 10:10:13;;;;;;;12.82;10.82;;;10.80;84.30;;;;;;5037312;28;20032;-65
2021/04/30 10:12:41;;;;;;;16.50;12.77;;;10.70;84.20;;;;;;5051534;28;20047;-62
2021/04/30 10:15:09;;;;;;;14.65;12.07;;;10.60;84.30;;;;;;5042258;28;20128;-63
2021/04/30 10:17:36;;;;;;;14.88;11.82;;;10.60;83.90;;;;;;5029953;28;20037;-64
2021/04/30 10:20:04;;;;;;;14.23;12.63;;;10.80;83.30;;;;;;5036647;28;20041;-63
2021/04/30 10:22:29;;;;;;;13.95;12.35;;;11.00;82.70;;;;;;5042119;28;20038;-62
2021/04/30 10:24:57;;;;;;;13.57;11.13;;;11.00;82.20;;;;;;5036071;28;20040;-63
2021/04/30 10:27:29;;;;;;;13.65;11.60;;;10.70;83.20;;;;;;5050529;28;20492;-63
2021/04/30 10:30:17;;;;;;;13.23;11.55;;;10.80;83.20;;;;;;5035433;28;20072;-64
2021/04/30 10:32:48;;;;;;;13.98;11.55;;;10.90;82.30;;;;;;5031411;28;20033;-64
2021/04/30 10:35:17;;;;;;;14.10;11.23;;;10.90;82.30;;;;;;5032847;28;20040;-62
2021/04/30 10:37:46;;;;;;;12.02;10.82;;;11.00;82.30;;;;;;5031989;28;20076;-63
2021/04/30 10:40:14;;;;;;;11.07;9.93;;;11.10;79.70;;;;;;5034141;28;20036;-62
2021/04/30 10:42:43;;;;;;;11.23;10.02;;;10.90;80.30;;;;;;5052185;28;20060;-64
2021/04/30 10:45:12;;;;;;;11.85;9.70;;;11.00;80.70;;;;;;5039011;28;20550;-63
2021/04/30 10:47:38;;;;;;;11.77;10.30;;;11.10;79.70;;;;;;5051805;28;20029;-64
2021/04/30 10:50:16;;;;;;;11.10;9.85;;;11.30;79.20;;;;;;5042659;28;20033;-64
2021/04/30 10:52:42;;;;;;;9.30;8.30;;;11.10;80.20;;;;;;5012837;28;20086;-68
2021/04/30 10:55:12;;;;;;;9.63;8.73;;;11.40;77.80;;;;;;5038594;28;20392;-64
2021/04/30 10:57:49;;;;;;;9.63;8.63;;;11.50;76.90;;;;;;5047039;28;20045;-61
2021/04/30 11:00:15;;;;;;;10.73;8.93;;;11.30;77.30;;;;;;5031218;28;20052;-63
2021/04/30 11:02:41;;;;;;;11.45;10.13;;;11.40;77.50;;;;;;5049426;28;20037;-61
2021/04/30 11:05:17;;;;;;;12.07;10.75;;;11.20;78.60;;;;;;5038391;28;20040;-64
2021/04/30 11:07:48;;;;;;;11.77;10.40;;;11.10;79.70;;;;;;5021415;28;20040;-62
2021/04/30 11:10:23;;;;;;;12.45;11.15;;;11.40;78.90;;;;;;5029646;28;20472;-64
2021/04/30 11:13:07;;;;;;;12.77;11.45;;;11.30;79.20;;;;;;5033031;28;20038;-62
2021/04/30 11:15:52;;;;;;;11.88;10.70;;;11.20;79.20;;;;;;5044313;28;20030;-63
2021/04/30 11:18:27;;;;;;;12.15;10.82;;;10.90;80.40;;;;;;5030185;28;20490;-63
2021/04/30 11:21:12;;;;;;;13.20;11.80;;;11.00;80.00;;;;;;5019672;28;20064;-62
2021/04/30 11:23:42;;;;;;;12.48;11.18;;;11.10;79.60;;;;;;5032827;28;20108;-62
2021/04/30 11:26:12;;;;;;;11.73;10.52;;;11.20;79.10;;;;;;5032373;28;20378;-62
2021/04/30 11:28:41;;;;;;;12.40;11.13;;;11.20;78.90;;;;;;5043327;28;20413;-62
2021/04/30 11:31:25;;;;;;;11.98;10.75;;;11.10;79.70;;;;;;5034327;28;20037;-62
2021/04/30 11:34:12;;;;;;;13.38;11.43;;;11.20;79.30;;;;;;5036323;28;20040;-59
2021/04/30 11:36:48;;;;;;;14.80;12.45;;;11.40;79.50;;;;;;5033668;28;20131;-61
2021/04/30 11:39:22;;;;;;;13.35;11.30;;;11.60;81.20;;;;;;5043166;28;20404;-59
2021/04/30 11:41:49;;;;;;;20.60;15.40;;;11.80;78.80;;;;;;5032388;28;20048;-60
2021/04/30 11:44:16;;;;;;;17.75;13.68;;;12.00;81.70;;;;;;5025222;28;20042;-61
2021/04/30 11:46:42;;;;;;;15.32;13.73;;;12.00;78.90;;;;;;5036964;28;20500;-59
2021/04/30 11:49:17;;;;;;;14.70;13.07;;;12.10;78.40;;;;;;5035541;28;20040;-62
2021/04/30 11:51:45;;;;;;;14.70;12.85;;;11.60;79.40;;;;;;5027069;28;20388;-62
2021/04/30 11:54:10;;;;;;;14.05;12.65;;;11.70;78.80;;;;;;5053528;28;20124;-61
2021/04/30 11:56:36;;;;;;;15.38;13.77;;;11.80;79.20;;;;;;5043886;28;20076;-61
2021/04/30 11:59:03;;;;;;;14.25;12.75;;;12.10;78.50;;;;;;5036877;28;20079;-66
2021/04/30 12:01:29;;;;;;;13.18;11.88;;;12.00;76.80;;;;;;5027654;28;20025;-63
2021/04/30 12:03:56;;;;;;;12.75;11.45;;;12.00;76.50;;;;;;5048607;28;20038;-63
2021/04/30 12:06:26;;;;;;;13.27;11.40;;;12.00;76.50;;;;;;5020283;28;20501;-65
2021/04/30 12:08:54;;;;;;;12.93;11.63;;;11.60;78.00;;;;;;5029226;28;20032;-61
2021/04/30 12:11:27;;;;;;;14.07;12.60;;;11.70;77.90;;;;;;5024183;28;20045;-63
2021/04/30 12:13:55;;;;;;;14.37;12.53;;;11.60;78.40;;;;;;5017526;28;20059;-63
2021/04/30 12:16:21;;;;;;;14.20;12.70;;;11.30;79.80;;;;;;5022964;28;20025;-64
2021/04/30 12:18:48;;;;;;;14.88;13.25;;;11.40;79.40;;;;;;5025788;28;20033;-66
2021/04/30 12:21:28;;;;;;;14.48;12.98;;;11.60;79.40;;;;;;5031001;28;20064;-63
2021/04/30 12:23:54;;;;;;;14.23;12.73;;;11.60;79.30;;;;;;5027797;28;20018;-59
2021/04/30 12:26:24;;;;;;;13.82;12.38;;;11.60;79.50;;;;;;5028757;28;20069;-59
2021/04/30 12:28:50;;;;;;;14.75;13.25;;;11.50;79.60;;;;;;5026254;28;20022;-62
2021/04/30 12:31:16;;;;;;;14.05;12.70;;;11.50;78.90;;;;;;5024843;28;20059;-63
2021/04/30 12:33:47;;;;;;;15.50;13.65;;;11.60;78.70;;;;;;5016493;28;20121;-64
2021/04/30 12:36:24;;;;;;;14.40;12.63;;;11.70;78.40;;;;;;5015361;28;20046;-63
2021/04/30 12:38:56;;;;;;;16.10;13.57;;;11.80;77.60;;;;;;5042513;28;20038;-64